Time;durP1;ratioP1;P1;durP2;ratioP2;P2;SDS_P1;SDS_P2;PMS_P1;PMS_P2;Temp;Humidity;BMP_temperature;BMP_pressure;BME280_temperature;BME280_humidity;BME280_pressure;Samples;Min_cycle;Max_cycle;Signal;HPM_P1;HPM_P2
2023/12/18 00:00:12;;;;;;;21.95;9.70;;;9.90;72.70;;;;;;5055376;28;20037;-67
2023/12/18 00:02:37;;;;;;;16.27;9.55;;;9.80;72.60;;;;;;5053849;28;20029;-67
2023/12/18 00:05:03;;;;;;;15.63;9.05;;;9.80;72.60;;;;;;5054233;28;20043;-67
2023/12/18 00:07:29;;;;;;;17.17;8.95;;;9.80;72.70;;;;;;5053536;28;20048;-67
2023/12/18 00:09:55;;;;;;;19.05;9.75;;;9.80;72.70;;;;;;5052387;28;20083;-66
2023/12/18 00:12:21;;;;;;;16.30;9.63;;;9.90;72.80;;;;;;5053852;28;20033;-67
2023/12/18 00:14:46;;;;;;;19.30;9.43;;;9.80;72.60;;;;;;5055221;28;20409;-66
2023/12/18 00:17:12;;;;;;;17.85;10.93;;;9.90;72.80;;;;;;5056309;28;20021;-67
2023/12/18 00:19:38;;;;;;;19.52;10.30;;;9.80;72.80;;;;;;5041264;28;20029;-67
2023/12/18 00:22:04;;;;;;;15.05;9.02;;;9.90;72.90;;;;;;5055594;28;20029;-67
2023/12/18 00:24:29;;;;;;;14.48;9.15;;;9.80;72.80;;;;;;5055630;28;20206;-67
2023/12/18 00:26:55;;;;;;;19.30;9.70;;;9.80;72.80;;;;;;5053288;28;20025;-66
2023/12/18 00:29:21;;;;;;;16.25;9.50;;;9.90;72.90;;;;;;5052143;28;20025;-67
2023/12/18 00:31:48;;;;;;;21.35;10.25;;;9.80;72.80;;;;;;5053428;28;20464;-66
2023/12/18 00:34:14;;;;;;;20.30;8.98;;;9.80;72.80;;;;;;5054200;28;20481;-66
2023/12/18 00:36:40;;;;;;;17.92;9.30;;;9.80;72.80;;;;;;5057031;28;20024;-67
2023/12/18 00:39:05;;;;;;;16.15;9.65;;;9.80;72.80;;;;;;5054224;28;20029;-67
2023/12/18 00:41:32;;;;;;;18.55;9.85;;;9.80;72.80;;;;;;5056422;28;20037;-66
2023/12/18 00:43:57;;;;;;;16.10;10.18;;;9.80;72.80;;;;;;5053192;28;20044;-67
2023/12/18 00:46:25;;;;;;;18.20;8.95;;;9.80;72.80;;;;;;5054802;28;20032;-66
2023/12/18 00:48:51;;;;;;;16.38;9.50;;;9.80;72.80;;;;;;5054453;28;20365;-67
2023/12/18 00:51:17;;;;;;;15.10;10.30;;;9.80;72.90;;;;;;5036608;28;20108;-67
2023/12/18 00:53:43;;;;;;;16.13;9.82;;;9.80;72.90;;;;;;5054375;28;20430;-66
2023/12/18 00:56:09;;;;;;;16.27;9.65;;;9.80;73.00;;;;;;5036110;28;20116;-66
2023/12/18 00:58:35;;;;;;;16.00;9.23;;;9.80;72.90;;;;;;5053328;28;20033;-66
2023/12/18 01:01:01;;;;;;;15.82;9.02;;;9.80;72.90;;;;;;5053032;28;20033;-67
2023/12/18 01:03:28;;;;;;;14.93;8.65;;;9.80;72.90;;;;;;5053329;28;20404;-67
2023/12/18 01:05:54;;;;;;;19.23;9.82;;;9.80;73.00;;;;;;5053863;28;20032;-67
2023/12/18 01:08:19;;;;;;;17.65;9.75;;;9.80;73.00;;;;;;5053105;28;20415;-67
2023/12/18 01:10:45;;;;;;;14.32;9.05;;;9.80;73.10;;;;;;5055280;28;20112;-66
2023/12/18 01:13:11;;;;;;;17.05;10.35;;;9.80;73.10;;;;;;5053682;28;20032;-67
2023/12/18 01:15:37;;;;;;;16.75;10.15;;;9.80;73.10;;;;;;5052412;28;20028;-67
2023/12/18 01:18:02;;;;;;;16.02;9.65;;;9.80;73.10;;;;;;5052979;28;20442;-67
2023/12/18 01:20:28;;;;;;;17.55;10.70;;;9.80;73.10;;;;;;5036272;28;20065;-67
2023/12/18 01:22:54;;;;;;;15.00;9.32;;;9.80;73.20;;;;;;5053206;28;20029;-67
2023/12/18 01:25:19;;;;;;;17.50;9.85;;;9.80;73.20;;;;;;5051152;28;20041;-67
2023/12/18 01:27:45;;;;;;;20.17;10.60;;;9.80;73.20;;;;;;5053767;28;20025;-67
2023/12/18 01:30:12;;;;;;;17.48;9.55;;;9.80;73.20;;;;;;5056208;28;20017;-67
2023/12/18 01:32:37;;;;;;;17.98;9.18;;;9.80;73.30;;;;;;5054896;28;20501;-66
2023/12/18 01:35:04;;;;;;;20.63;9.70;;;9.80;73.30;;;;;;5052609;28;20116;-67
2023/12/18 01:37:29;;;;;;;15.90;9.30;;;9.80;73.30;;;;;;5051761;28;20477;-66
2023/12/18 01:39:55;;;;;;;19.35;10.25;;;9.80;73.30;;;;;;5034740;28;20036;-66
2023/12/18 01:42:21;;;;;;;15.30;9.43;;;9.80;73.30;;;;;;5054206;28;20029;-66
2023/12/18 01:44:48;;;;;;;14.95;9.50;;;9.90;73.40;;;;;;5055167;28;20039;-66
2023/12/18 01:47:15;;;;;;;16.75;9.57;;;9.80;73.40;;;;;;5053604;28;20036;-66
2023/12/18 01:49:41;;;;;;;14.98;9.65;;;9.90;73.50;;;;;;5054631;28;20033;-66
2023/12/18 01:52:07;;;;;;;17.95;10.05;;;9.90;73.50;;;;;;5054307;28;20052;-67
2023/12/18 01:54:33;;;;;;;17.70;9.48;;;9.90;73.60;;;;;;5057890;28;20036;-66
2023/12/18 01:57:01;;;;;;;20.50;10.20;;;9.90;73.60;;;;;;5057505;28;20037;-67
2023/12/18 01:59:27;;;;;;;17.80;9.77;;;9.80;73.60;;;;;;5057086;28;20028;-67
2023/12/18 02:01:53;;;;;;;15.30;9.32;;;9.90;73.70;;;;;;5056923;28;20060;-66
2023/12/18 02:04:19;;;;;;;16.88;9.98;;;9.80;73.70;;;;;;5054658;28;20021;-66
2023/12/18 02:06:46;;;;;;;16.92;9.77;;;9.90;73.70;;;;;;5035992;28;20090;-67
2023/12/18 02:09:12;;;;;;;15.35;9.45;;;9.90;73.70;;;;;;5057583;28;20035;-66
2023/12/18 02:11:39;;;;;;;18.48;10.50;;;9.80;73.70;;;;;;5055014;28;20017;-67
2023/12/18 02:14:05;;;;;;;15.43;9.80;;;9.90;73.80;;;;;;5058902;28;20395;-67
2023/12/18 02:16:31;;;;;;;16.25;9.05;;;9.90;73.80;;;;;;5040759;28;20062;-66
2023/12/18 02:18:57;;;;;;;14.95;10.10;;;9.90;73.80;;;;;;5057953;28;20064;-66
2023/12/18 02:21:22;;;;;;;15.57;9.18;;;9.90;74.00;;;;;;5039937;28;20373;-67
2023/12/18 02:23:49;;;;;;;14.68;9.65;;;9.90;73.90;;;;;;5054816;28;20036;-66
2023/12/18 02:26:16;;;;;;;16.30;9.15;;;9.90;73.90;;;;;;5055464;28;21325;-67
2023/12/18 02:28:45;;;;;;;15.27;9.68;;;9.90;73.90;;;;;;5053836;28;20029;-67
2023/12/18 02:31:14;;;;;;;15.57;9.05;;;9.90;73.90;;;;;;5055689;28;20445;-66
2023/12/18 02:33:48;;;;;;;16.63;9.43;;;9.90;73.90;;;;;;5056442;28;20099;-66
2023/12/18 02:36:13;;;;;;;14.35;9.50;;;9.90;73.90;;;;;;5038494;28;20048;-67
2023/12/18 02:38:39;;;;;;;17.95;9.65;;;9.90;73.90;;;;;;5055942;28;20130;-67
2023/12/18 02:41:05;;;;;;;17.08;9.73;;;9.90;73.90;;;;;;5038171;28;20031;-66
2023/12/18 02:43:30;;;;;;;15.98;9.88;;;9.90;74.00;;;;;;5053875;28;20037;-67
2023/12/18 02:45:56;;;;;;;19.45;9.55;;;9.90;74.00;;;;;;5056558;28;20032;-66
2023/12/18 02:48:22;;;;;;;14.63;9.80;;;9.90;74.10;;;;;;5054326;28;20047;-67
2023/12/18 02:50:48;;;;;;;16.55;10.40;;;9.90;74.10;;;;;;5054219;28;20465;-67
2023/12/18 02:53:15;;;;;;;17.27;10.93;;;9.90;74.20;;;;;;5060303;28;20017;-67
2023/12/18 02:55:40;;;;;;;20.30;10.50;;;9.90;74.20;;;;;;5055043;28;20056;-67
2023/12/18 02:58:06;;;;;;;16.25;10.23;;;9.90;74.90;;;;;;5055173;28;20068;-67
2023/12/18 03:00:32;;;;;;;16.88;9.73;;;9.90;74.30;;;;;;5036791;28;20029;-67
2023/12/18 03:02:57;;;;;;;14.90;9.52;;;9.90;74.30;;;;;;5054751;28;20021;-67
2023/12/18 03:05:23;;;;;;;15.65;9.95;;;9.90;74.30;;;;;;5055127;28;20445;-66
2023/12/18 03:07:49;;;;;;;15.88;9.73;;;9.90;74.20;;;;;;5054225;28;20029;-66
2023/12/18 03:10:15;;;;;;;15.27;9.45;;;9.90;74.20;;;;;;5053759;28;20029;-66
2023/12/18 03:12:40;;;;;;;18.75;10.70;;;9.90;74.30;;;;;;5054748;28;20082;-66
2023/12/18 03:15:07;;;;;;;15.65;9.80;;;9.90;74.30;;;;;;5053648;28;20064;-67
2023/12/18 03:17:33;;;;;;;17.40;10.30;;;10.00;74.40;;;;;;5054846;28;20025;-66
2023/12/18 03:19:58;;;;;;;15.60;9.25;;;9.90;74.40;;;;;;5054600;28;20029;-66
2023/12/18 03:22:24;;;;;;;17.50;9.93;;;9.90;74.50;;;;;;5052708;28;20037;-66
2023/12/18 03:24:50;;;;;;;17.65;10.43;;;9.90;74.50;;;;;;5054416;28;20483;-66
2023/12/18 03:27:16;;;;;;;18.17;10.10;;;9.90;74.60;;;;;;5053537;28;20060;-66
2023/12/18 03:29:42;;;;;;;18.73;10.43;;;10.00;74.70;;;;;;5054173;28;20032;-67
2023/12/18 03:32:07;;;;;;;16.33;9.48;;;9.90;74.70;;;;;;5053563;28;20048;-66
2023/12/18 03:34:33;;;;;;;17.52;9.70;;;9.90;74.70;;;;;;5054214;28;20033;-66
2023/12/18 03:36:59;;;;;;;17.13;10.25;;;9.90;74.70;;;;;;5036819;28;20179;-67
2023/12/18 03:39:25;;;;;;;16.50;9.65;;;10.00;74.80;;;;;;5054040;28;20460;-66
2023/12/18 03:41:51;;;;;;;17.55;9.98;;;10.00;74.80;;;;;;5052311;28;20123;-66
2023/12/18 03:44:17;;;;;;;16.35;10.13;;;9.90;74.80;;;;;;5054478;28;20032;-66
2023/12/18 03:46:43;;;;;;;15.93;10.57;;;9.90;74.80;;;;;;5044668;28;20082;-67
2023/12/18 03:49:09;;;;;;;15.68;9.20;;;9.90;74.80;;;;;;5036480;28;20029;-66
2023/12/18 03:51:34;;;;;;;16.42;9.98;;;9.90;74.90;;;;;;5053331;28;20120;-67
2023/12/18 03:54:00;;;;;;;16.55;10.05;;;9.90;74.90;;;;;;5032861;28;20100;-66
2023/12/18 03:56:26;;;;;;;19.35;10.57;;;9.90;74.90;;;;;;5052799;28;20363;-66
2023/12/18 03:58:51;;;;;;;15.75;10.00;;;9.90;74.90;;;;;;5053986;28;20043;-66
2023/12/18 04:01:17;;;;;;;18.52;10.50;;;9.90;74.90;;;;;;5055834;28;20021;-66
2023/12/18 04:03:43;;;;;;;18.63;10.77;;;9.90;75.00;;;;;;5054721;28;20101;-67
2023/12/18 04:06:09;;;;;;;17.00;10.15;;;9.90;75.00;;;;;;5053969;28;20033;-66
2023/12/18 04:08:36;;;;;;;18.10;10.25;;;10.00;75.10;;;;;;5050772;28;20021;-67
2023/12/18 04:11:03;;;;;;;16.27;9.90;;;9.90;75.00;;;;;;5053652;28;20450;-66
2023/12/18 04:13:28;;;;;;;17.48;10.85;;;9.90;75.00;;;;;;5035702;28;20085;-67
2023/12/18 04:15:54;;;;;;;16.90;10.55;;;10.00;75.20;;;;;;5052729;28;20029;-66
2023/12/18 04:18:20;;;;;;;18.42;10.80;;;9.90;75.10;;;;;;5036110;28;20021;-67
2023/12/18 04:20:46;;;;;;;13.68;9.48;;;10.00;75.20;;;;;;5054263;28;20071;-66
2023/12/18 04:23:11;;;;;;;19.27;10.27;;;9.90;75.10;;;;;;5053935;28;20025;-66
2023/12/18 04:25:37;;;;;;;20.15;10.93;;;9.90;75.20;;;;;;5055090;28;20389;-66
2023/12/18 04:28:03;;;;;;;18.63;11.48;;;9.90;75.20;;;;;;5055208;28;20338;-66
2023/12/18 04:30:30;;;;;;;20.27;11.05;;;10.00;75.30;;;;;;5054276;28;20438;-67
2023/12/18 04:32:55;;;;;;;18.67;10.15;;;9.90;75.20;;;;;;5053193;28;20065;-66
2023/12/18 04:35:21;;;;;;;19.70;10.60;;;10.00;75.30;;;;;;5054903;28;20086;-66
2023/12/18 04:37:47;;;;;;;17.65;10.88;;;9.90;75.30;;;;;;5054465;28;20116;-66
2023/12/18 04:40:13;;;;;;;16.92;10.10;;;9.90;75.30;;;;;;5053589;28;20025;-66
2023/12/18 04:42:38;;;;;;;18.85;10.75;;;10.00;75.50;;;;;;5053286;28;20056;-66
2023/12/18 04:45:04;;;;;;;18.70;10.27;;;10.00;75.50;;;;;;5052225;28;20063;-66
2023/12/18 04:47:30;;;;;;;20.75;10.85;;;10.00;75.50;;;;;;5057719;28;20112;-66
2023/12/18 04:49:56;;;;;;;20.58;10.60;;;9.90;75.50;;;;;;5054775;28;20533;-66
2023/12/18 04:52:22;;;;;;;19.35;10.25;;;9.90;75.60;;;;;;5052956;28;20018;-66
2023/12/18 04:54:47;;;;;;;21.40;11.52;;;9.90;75.60;;;;;;5053627;28;20116;-66
2023/12/18 04:57:13;;;;;;;17.15;11.05;;;9.90;75.70;;;;;;5052988;28;20103;-66
2023/12/18 04:59:39;;;;;;;18.40;10.70;;;9.90;75.70;;;;;;5052883;28;20036;-66
2023/12/18 05:02:04;;;;;;;21.85;11.82;;;9.90;75.70;;;;;;5051006;28;20108;-67
2023/12/18 05:04:30;;;;;;;17.60;9.88;;;9.90;75.80;;;;;;5051996;28;20381;-67
2023/12/18 05:06:56;;;;;;;18.60;10.57;;;9.90;75.90;;;;;;5050201;28;20423;-67
2023/12/18 05:09:21;;;;;;;17.52;10.65;;;9.90;75.90;;;;;;5053644;28;20029;-67
2023/12/18 05:11:47;;;;;;;16.70;9.82;;;9.90;75.90;;;;;;5052716;28;20036;-66
2023/12/18 05:14:13;;;;;;;19.30;10.80;;;9.90;75.80;;;;;;5053537;28;20029;-66
2023/12/18 05:16:39;;;;;;;19.65;10.43;;;10.00;75.90;;;;;;5053159;28;20468;-66
2023/12/18 05:19:04;;;;;;;18.58;10.85;;;10.00;75.90;;;;;;5041868;28;20335;-66
2023/12/18 05:21:30;;;;;;;18.38;10.27;;;9.90;75.80;;;;;;5038694;28;20029;-66
2023/12/18 05:23:56;;;;;;;15.98;9.68;;;10.00;75.90;;;;;;5040295;28;20100;-66
2023/12/18 05:26:21;;;;;;;19.33;9.68;;;9.90;75.90;;;;;;5023447;28;20025;-66
2023/12/18 05:28:47;;;;;;;19.95;11.43;;;9.90;75.90;;;;;;5046596;28;20100;-66
2023/12/18 05:31:15;;;;;;;18.58;10.40;;;9.90;75.90;;;;;;5044979;28;20561;-66
2023/12/18 05:33:41;;;;;;;17.17;10.85;;;9.90;76.00;;;;;;5042050;28;20041;-66
2023/12/18 05:36:07;;;;;;;20.00;11.18;;;9.90;76.00;;;;;;5049793;28;20031;-66
2023/12/18 05:38:33;;;;;;;17.95;10.90;;;9.90;76.10;;;;;;5043118;28;20093;-67
2023/12/18 05:40:58;;;;;;;17.75;11.23;;;9.90;76.10;;;;;;5027366;28;20021;-66
2023/12/18 05:43:24;;;;;;;18.15;11.23;;;9.90;76.10;;;;;;5040240;28;20064;-66
2023/12/18 05:45:50;;;;;;;18.85;11.95;;;9.90;76.10;;;;;;5041914;28;20087;-66
2023/12/18 05:48:15;;;;;;;19.73;11.45;;;9.90;76.10;;;;;;5026635;28;20029;-66
2023/12/18 05:50:41;;;;;;;18.95;11.20;;;9.90;76.40;;;;;;5037931;28;20496;-66
2023/12/18 05:53:07;;;;;;;15.50;10.57;;;9.90;76.10;;;;;;5044198;28;20045;-69
2023/12/18 05:55:33;;;;;;;21.30;11.90;;;9.90;76.10;;;;;;5042749;28;20032;-67
2023/12/18 05:57:58;;;;;;;21.90;12.20;;;9.90;76.20;;;;;;5048287;28;20025;-66
2023/12/18 06:00:24;;;;;;;16.63;11.00;;;9.90;76.20;;;;;;5045849;28;20025;-66
2023/12/18 06:02:50;;;;;;;20.17;11.95;;;9.90;76.20;;;;;;5050022;28;20039;-66
2023/12/18 06:05:15;;;;;;;19.60;12.23;;;9.90;76.30;;;;;;5056684;28;20349;-66
2023/12/18 06:07:42;;;;;;;21.90;13.10;;;9.90;76.30;;;;;;5053945;28;20056;-67
2023/12/18 06:10:10;;;;;;;19.65;11.40;;;9.90;76.30;;;;;;5055527;28;20369;-67
2023/12/18 06:12:37;;;;;;;23.60;12.70;;;9.90;76.30;;;;;;5055191;28;20039;-66
2023/12/18 06:15:03;;;;;;;19.60;13.07;;;9.90;76.30;;;;;;5055905;28;20098;-67
2023/12/18 06:17:29;;;;;;;20.58;12.70;;;9.90;76.40;;;;;;5053748;28;20421;-67
2023/12/18 06:19:55;;;;;;;21.35;11.90;;;9.80;76.30;;;;;;5054133;28;20044;-68
2023/12/18 06:22:22;;;;;;;19.58;12.13;;;9.90;76.40;;;;;;5054953;28;20040;-67
2023/12/18 06:24:48;;;;;;;20.73;12.38;;;9.90;76.40;;;;;;5056016;28;20032;-67
2023/12/18 06:27:14;;;;;;;21.77;12.70;;;9.90;76.40;;;;;;5054574;28;20029;-67
2023/12/18 06:29:39;;;;;;;20.88;12.80;;;9.90;76.50;;;;;;5055693;28;20466;-67
2023/12/18 06:32:05;;;;;;;20.60;12.40;;;9.90;76.50;;;;;;5055145;28;20037;-68
2023/12/18 06:34:31;;;;;;;21.42;12.80;;;9.90;76.40;;;;;;5054776;28;20029;-68
2023/12/18 06:36:57;;;;;;;23.00;12.90;;;9.90;76.40;;;;;;5051899;28;20021;-67
2023/12/18 06:39:23;;;;;;;17.58;12.57;;;9.90;76.40;;;;;;5054127;28;20048;-67
2023/12/18 06:41:48;;;;;;;20.25;13.45;;;9.90;76.40;;;;;;5054657;28;20112;-67
2023/12/18 06:44:14;;;;;;;22.15;13.23;;;9.90;76.50;;;;;;5052954;28;20460;-66
2023/12/18 06:46:40;;;;;;;18.08;12.70;;;9.90;76.50;;;;;;5054574;28;20131;-66
2023/12/18 06:49:06;;;;;;;19.80;12.93;;;9.90;76.50;;;;;;5053551;28;20035;-67
2023/12/18 06:51:31;;;;;;;21.23;13.38;;;9.90;76.50;;;;;;5051626;28;20104;-67
2023/12/18 06:53:57;;;;;;;19.40;12.38;;;9.90;76.60;;;;;;5055550;28;20024;-67
2023/12/18 06:56:23;;;;;;;21.92;12.95;;;9.90;76.60;;;;;;5034265;28;20030;-67
2023/12/18 06:58:48;;;;;;;19.48;13.02;;;9.90;76.60;;;;;;5045062;28;20037;-67
2023/12/18 07:01:17;;;;;;;21.05;13.00;;;9.90;76.60;;;;;;5055835;28;20032;-67
2023/12/18 07:03:43;;;;;;;20.27;12.90;;;9.90;76.60;;;;;;5055787;28;20067;-67
2023/12/18 07:06:09;;;;;;;20.77;12.25;;;9.90;76.60;;;;;;5054660;28;20401;-66
2023/12/18 07:08:35;;;;;;;18.38;12.05;;;9.90;76.60;;;;;;5055558;28;20120;-67
2023/12/18 07:11:01;;;;;;;20.73;12.45;;;9.90;76.60;;;;;;5053797;28;20041;-67
2023/12/18 07:13:27;;;;;;;23.77;12.68;;;9.90;76.60;;;;;;5054640;28;20044;-67
2023/12/18 07:15:53;;;;;;;21.92;12.82;;;9.90;76.70;;;;;;5053246;28;20036;-66
2023/12/18 07:18:18;;;;;;;21.73;12.95;;;9.90;76.70;;;;;;5054289;28;20107;-66
2023/12/18 07:20:45;;;;;;;19.85;12.38;;;9.90;77.40;;;;;;5050979;28;20068;-66
2023/12/18 07:23:11;;;;;;;20.00;12.63;;;9.90;76.80;;;;;;5053071;28;20025;-67
2023/12/18 07:25:37;;;;;;;21.50;14.00;;;9.90;76.80;;;;;;5053909;28;20028;-67
2023/12/18 07:28:09;;;;;;;21.40;13.18;;;9.90;76.70;;;;;;5054058;28;20346;-66
2023/12/18 07:30:38;;;;;;;18.85;12.43;;;10.00;76.80;;;;;;5053442;28;20481;-66
2023/12/18 07:33:05;;;;;;;24.50;13.43;;;9.90;76.80;;;;;;4977047;28;1454750;-67
2023/12/18 07:35:31;;;;;;;22.25;12.60;;;10.00;76.90;;;;;;5052970;28;20036;-67
2023/12/18 07:37:57;;;;;;;25.42;13.30;;;9.90;76.80;;;;;;5054642;28;20025;-67
2023/12/18 07:40:22;;;;;;;23.98;13.18;;;10.00;76.90;;;;;;5052681;28;20374;-68
2023/12/18 07:42:49;;;;;;;22.17;13.00;;;10.00;76.90;;;;;;5053398;28;20039;-67
2023/12/18 07:45:15;;;;;;;20.00;12.73;;;10.00;76.90;;;;;;5053510;28;20462;-67
2023/12/18 07:47:41;;;;;;;22.63;12.52;;;10.10;76.90;;;;;;5053927;28;20369;-67
2023/12/18 07:50:07;;;;;;;20.60;12.80;;;10.10;76.90;;;;;;5052546;28;20029;-67
2023/12/18 07:52:33;;;;;;;22.00;13.70;;;10.10;76.80;;;;;;5051121;28;20029;-68
2023/12/18 07:54:59;;;;;;;20.98;13.40;;;10.10;76.80;;;;;;5051826;28;20021;-68
2023/12/18 07:57:25;;;;;;;24.00;13.85;;;10.10;76.80;;;;;;5053102;28;20024;-67
2023/12/18 07:59:51;;;;;;;23.15;14.05;;;10.10;76.70;;;;;;5048904;28;20083;-66
2023/12/18 08:02:17;;;;;;;22.13;12.20;;;10.10;76.80;;;;;;5052511;28;20035;-67
2023/12/18 08:04:42;;;;;;;20.15;12.73;;;10.10;76.80;;;;;;5053708;28;20017;-67
2023/12/18 08:07:08;;;;;;;21.80;13.63;;;10.10;76.80;;;;;;5054111;28;20032;-67
2023/12/18 08:09:34;;;;;;;21.35;12.35;;;10.10;76.80;;;;;;5054368;28;20442;-66
2023/12/18 08:12:00;;;;;;;17.65;11.68;;;10.10;76.80;;;;;;5054133;28;20035;-66
2023/12/18 08:14:25;;;;;;;19.77;11.77;;;10.10;76.80;;;;;;5053391;28;20119;-66
2023/12/18 08:16:51;;;;;;;18.70;12.13;;;10.10;76.80;;;;;;5053982;28;20024;-66
2023/12/18 08:19:17;;;;;;;21.38;12.13;;;10.10;76.80;;;;;;5052481;28;20055;-66
2023/12/18 08:21:44;;;;;;;21.85;12.65;;;10.10;76.80;;;;;;5054839;28;20029;-66
2023/12/18 08:24:10;;;;;;;22.85;12.38;;;10.10;76.80;;;;;;5035762;28;20083;-66
2023/12/18 08:26:35;;;;;;;18.92;11.75;;;10.10;76.90;;;;;;5053438;28;20108;-67
2023/12/18 08:29:01;;;;;;;21.90;12.75;;;10.10;76.90;;;;;;5053300;28;20033;-66
2023/12/18 08:31:27;;;;;;;19.13;11.65;;;10.10;76.90;;;;;;5034491;28;20017;-66
2023/12/18 08:33:53;;;;;;;20.10;12.25;;;10.10;76.90;;;;;;5053319;28;20108;-66
2023/12/18 08:36:19;;;;;;;19.60;12.05;;;10.10;76.90;;;;;;5052599;28;20402;-66
2023/12/18 08:38:45;;;;;;;21.58;12.38;;;10.10;76.80;;;;;;5052224;28;20056;-65
2023/12/18 08:41:11;;;;;;;22.63;12.90;;;10.10;76.80;;;;;;5052882;28;20055;-66
2023/12/18 08:43:37;;;;;;;20.48;12.35;;;10.10;76.80;;;;;;5037176;28;20035;-66
2023/12/18 08:46:03;;;;;;;19.38;12.30;;;10.10;76.80;;;;;;5052069;28;20556;-66
2023/12/18 08:48:29;;;;;;;21.83;12.77;;;10.20;76.80;;;;;;5053451;28;20043;-67
2023/12/18 08:50:54;;;;;;;22.63;13.35;;;10.20;76.80;;;;;;5051176;28;20025;-67
2023/12/18 08:53:20;;;;;;;19.33;11.98;;;10.20;76.80;;;;;;5053478;28;20044;-67
2023/12/18 08:55:46;;;;;;;23.92;13.32;;;10.10;76.70;;;;;;5052645;28;20056;-66
2023/12/18 08:58:11;;;;;;;22.35;12.00;;;10.20;76.80;;;;;;5052963;28;20353;-66
2023/12/18 09:00:37;;;;;;;20.50;12.70;;;10.10;76.70;;;;;;5052196;28;20025;-66
2023/12/18 09:03:04;;;;;;;23.10;12.93;;;10.20;76.80;;;;;;5052975;28;20037;-67
2023/12/18 09:05:33;;;;;;;22.30;12.40;;;10.10;76.80;;;;;;5053072;28;20323;-66
2023/12/18 09:07:58;;;;;;;21.33;11.43;;;10.20;76.80;;;;;;5051279;28;20025;-67
2023/12/18 09:10:24;;;;;;;22.35;12.82;;;10.20;76.90;;;;;;5050806;28;20350;-67
2023/12/18 09:12:52;;;;;;;20.42;12.75;;;10.20;76.90;;;;;;5050541;28;20519;-66
2023/12/18 09:15:18;;;;;;;21.15;11.98;;;10.20;76.80;;;;;;5052769;28;20029;-66
2023/12/18 09:17:45;;;;;;;22.70;12.75;;;10.20;76.70;;;;;;5052681;28;20053;-67
2023/12/18 09:20:12;;;;;;;20.40;12.30;;;10.30;76.80;;;;;;5053930;28;20501;-67
2023/12/18 09:22:38;;;;;;;21.55;11.73;;;10.30;76.80;;;;;;5054861;28;20052;-65
2023/12/18 09:25:04;;;;;;;19.98;11.35;;;10.30;76.70;;;;;;5053795;28;20033;-66
2023/12/18 09:27:31;;;;;;;18.85;11.48;;;10.30;76.70;;;;;;5052944;28;20413;-66
2023/12/18 09:29:57;;;;;;;21.73;11.35;;;10.30;76.70;;;;;;5053587;28;20454;-68
2023/12/18 09:32:23;;;;;;;19.52;12.45;;;10.30;76.60;;;;;;5051414;28;20053;-67
2023/12/18 09:34:49;;;;;;;20.38;11.35;;;10.30;77.30;;;;;;5047497;28;20032;-67
2023/12/18 09:37:15;;;;;;;21.63;12.25;;;10.30;76.70;;;;;;5058693;28;20465;-68
2023/12/18 09:39:41;;;;;;;21.80;11.98;;;10.30;76.60;;;;;;5058297;28;20043;-67
2023/12/18 09:42:09;;;;;;;24.17;12.07;;;10.30;76.70;;;;;;5048748;28;20025;-66
2023/12/18 09:44:36;;;;;;;19.13;11.68;;;10.30;76.70;;;;;;5052909;28;20462;-66
2023/12/18 09:47:02;;;;;;;23.15;12.77;;;10.30;76.70;;;;;;5055169;28;20029;-68
2023/12/18 09:49:29;;;;;;;21.73;12.35;;;10.30;76.70;;;;;;5053575;28;20039;-67
2023/12/18 09:52:01;;;;;;;20.88;12.57;;;10.30;76.60;;;;;;5054543;28;20029;-67
2023/12/18 09:54:27;;;;;;;20.30;12.00;;;10.30;76.60;;;;;;5053519;28;20087;-67
2023/12/18 09:56:55;;;;;;;19.75;11.60;;;10.40;76.70;;;;;;5036349;28;20132;-68
2023/12/18 09:59:21;;;;;;;20.05;11.77;;;10.40;76.60;;;;;;5060408;28;20029;-68
2023/12/18 10:01:48;;;;;;;22.95;12.35;;;10.40;76.60;;;;;;5045584;28;20559;-68
2023/12/18 10:04:13;;;;;;;19.40;12.50;;;10.40;76.60;;;;;;5073193;28;20097;-67
2023/12/18 10:06:40;;;;;;;21.42;13.43;;;10.40;76.60;;;;;;5058711;28;20029;-68
2023/12/18 10:09:12;;;;;;;18.17;11.77;;;10.40;76.60;;;;;;5056657;28;20039;-68
2023/12/18 10:11:38;;;;;;;20.02;12.70;;;10.40;76.70;;;;;;5074335;28;20025;-68
2023/12/18 10:14:04;;;;;;;21.88;12.48;;;10.40;76.60;;;;;;5076417;28;20031;-68
2023/12/18 10:16:31;;;;;;;21.58;11.90;;;10.40;76.60;;;;;;5061464;28;20029;-68
2023/12/18 10:18:57;;;;;;;21.88;12.45;;;10.50;76.60;;;;;;5077667;28;20113;-68
2023/12/18 10:21:24;;;;;;;22.92;13.18;;;10.50;76.50;;;;;;5073310;28;20040;-68
2023/12/18 10:23:53;;;;;;;23.88;12.50;;;10.60;76.40;;;;;;5077137;28;20032;-68
2023/12/18 10:26:18;;;;;;;20.23;12.50;;;10.60;76.30;;;;;;5066177;28;20017;-68
2023/12/18 10:28:45;;;;;;;23.00;12.45;;;10.60;76.30;;;;;;5075451;28;20464;-68
2023/12/18 10:31:11;;;;;;;19.25;12.60;;;10.60;76.30;;;;;;5077343;28;20021;-68
2023/12/18 10:33:37;;;;;;;18.50;11.93;;;10.60;76.30;;;;;;5077173;28;20521;-68
2023/12/18 10:36:06;;;;;;;22.70;12.98;;;10.70;76.30;;;;;;5072654;28;20033;-68
2023/12/18 10:38:36;;;;;;;21.73;11.45;;;10.70;76.30;;;;;;5070614;28;20032;-68
2023/12/18 10:41:04;;;;;;;22.35;13.52;;;10.70;76.20;;;;;;5076048;28;20361;-68
2023/12/18 10:43:33;;;;;;;22.98;12.80;;;10.70;76.20;;;;;;5077048;28;20456;-68
2023/12/18 10:46:02;;;;;;;19.60;12.10;;;10.70;76.20;;;;;;5061260;28;20499;-68
2023/12/18 10:48:28;;;;;;;21.20;13.02;;;10.70;76.20;;;;;;5054290;28;20453;-68
2023/12/18 10:50:56;;;;;;;18.42;11.82;;;10.70;76.10;;;;;;5075478;28;20090;-68
2023/12/18 10:53:24;;;;;;;21.05;11.55;;;10.80;76.10;;;;;;5067742;28;20047;-68
2023/12/18 10:55:52;;;;;;;19.63;11.68;;;10.80;76.10;;;;;;5060396;28;20312;-68
2023/12/18 10:58:18;;;;;;;20.17;12.85;;;10.80;76.00;;;;;;5056893;28;20035;-68
2023/12/18 11:00:44;;;;;;;19.77;13.27;;;10.80;76.00;;;;;;5056683;28;20331;-68
2023/12/18 11:03:13;;;;;;;22.65;12.68;;;10.80;75.90;;;;;;5055448;28;20025;-68
2023/12/18 11:05:41;;;;;;;18.50;11.23;;;10.80;75.90;;;;;;5056643;28;20033;-68
2023/12/18 11:08:07;;;;;;;18.25;12.23;;;10.90;75.90;;;;;;5054381;28;20069;-68
2023/12/18 11:10:33;;;;;;;23.27;13.23;;;10.90;75.80;;;;;;5055252;28;20064;-68
2023/12/18 11:13:27;;;;;;;20.13;11.68;;;10.90;75.80;;;;;;5044314;28;20029;-68
2023/12/18 11:16:19;;;;;;;19.92;12.27;;;10.90;75.70;;;;;;5066855;28;20378;-68
2023/12/18 11:19:06;;;;;;;20.48;11.98;;;11.00;75.70;;;;;;5055149;28;20028;-68
2023/12/18 11:21:35;;;;;;;18.90;11.93;;;11.00;75.70;;;;;;5061138;28;20361;-68
2023/12/18 11:24:03;;;;;;;20.75;11.35;;;11.00;75.50;;;;;;5069789;28;20033;-68
2023/12/18 11:26:32;;;;;;;21.52;11.82;;;11.00;75.50;;;;;;5068783;28;20021;-68
2023/12/18 11:29:02;;;;;;;18.15;12.15;;;11.00;75.40;;;;;;5058319;28;20024;-68
2023/12/18 11:31:28;;;;;;;20.35;11.85;;;11.10;75.50;;;;;;5055037;28;20116;-69
2023/12/18 11:34:04;;;;;;;20.33;12.75;;;11.00;75.40;;;;;;5060678;28;20071;-68
2023/12/18 11:36:31;;;;;;;21.38;12.32;;;11.00;75.50;;;;;;5072926;28;20052;-68
2023/12/18 11:38:57;;;;;;;21.65;12.77;;;11.00;75.60;;;;;;5072142;28;20361;-68
2023/12/18 11:41:39;;;;;;;22.80;12.30;;;11.00;75.70;;;;;;5064958;28;20016;-68
2023/12/18 11:44:11;;;;;;;22.75;12.02;;;10.90;75.70;;;;;;5072854;28;20040;-68
2023/12/18 11:46:38;;;;;;;24.02;13.48;;;10.90;75.70;;;;;;5064780;28;20429;-68
2023/12/18 11:49:07;;;;;;;20.15;12.43;;;10.90;75.80;;;;;;5061768;28;20383;-68
2023/12/18 11:51:33;;;;;;;20.33;13.00;;;10.90;76.50;;;;;;5059743;28;20121;-68
2023/12/18 11:54:00;;;;;;;20.88;12.07;;;10.90;75.90;;;;;;5067849;28;20032;-69
2023/12/18 11:56:40;;;;;;;21.58;13.40;;;10.90;75.90;;;;;;5054118;28;20040;-68
2023/12/18 11:59:07;;;;;;;19.65;12.15;;;10.90;75.80;;;;;;5067778;28;20116;-68
2023/12/18 12:01:33;;;;;;;20.83;11.32;;;10.90;75.80;;;;;;5052519;28;20044;-68
2023/12/18 12:03:59;;;;;;;21.20;11.77;;;11.00;75.80;;;;;;5053516;28;20032;-68
2023/12/18 12:06:26;;;;;;;20.75;12.55;;;10.90;75.70;;;;;;5055097;28;20032;-68
2023/12/18 12:08:52;;;;;;;18.63;11.65;;;10.90;75.80;;;;;;5055485;28;20040;-68
2023/12/18 12:11:19;;;;;;;19.20;11.60;;;10.90;75.80;;;;;;5054265;28;20118;-68
2023/12/18 12:13:49;;;;;;;23.58;12.57;;;10.90;75.80;;;;;;5053664;28;20033;-68
2023/12/18 12:16:18;;;;;;;20.00;12.85;;;10.90;75.80;;;;;;5053199;28;20036;-67
2023/12/18 12:18:50;;;;;;;20.55;12.43;;;10.90;75.80;;;;;;5055215;28;20048;-67
2023/12/18 12:21:17;;;;;;;21.20;11.40;;;11.00;75.80;;;;;;5053750;28;20174;-68
2023/12/18 12:23:46;;;;;;;20.38;12.45;;;10.90;75.70;;;;;;5052522;28;20037;-67
2023/12/18 12:26:13;;;;;;;23.52;12.48;;;10.90;75.70;;;;;;5054789;28;20028;-67
2023/12/18 12:28:42;;;;;;;22.27;13.10;;;10.90;75.80;;;;;;5053643;28;20040;-67
2023/12/18 12:31:08;;;;;;;21.45;12.65;;;11.00;75.80;;;;;;5053801;28;20063;-67